Time;durP1;ratioP1;P1;durP2;ratioP2;P2;SDS_P1;SDS_P2;PMS_P1;PMS_P2;Temp;Humidity;BMP_temperature;BMP_pressure;BME280_temperature;BME280_humidity;BME280_pressure;Samples;Min_cycle;Max_cycle;Signal;HPM_P1;HPM_P2
2023/06/24 00:02:06;;;;;;;;;5.50;5.50;;;;;;;;5053422;28;8828;-82
2023/06/24 00:04:33;;;;;;;;;5.75;5.75;;;;;;;;5049974;28;8926;-83
2023/06/24 00:07:03;;;;;;;;;6.75;6.75;;;;;;;;5051473;28;8957;-83
2023/06/24 00:09:31;;;;;;;;;7.00;6.50;;;;;;;;5050342;28;8861;-83
2023/06/24 00:12:00;;;;;;;;;7.00;5.50;;;;;;;;5047416;28;8873;-83
2023/06/24 00:14:29;;;;;;;;;9.25;7.25;;;;;;;;5051855;28;8972;-83
2023/06/24 00:16:57;;;;;;;;;4.25;4.25;;;;;;;;5052332;28;8910;-83
2023/06/24 00:19:25;;;;;;;;;5.25;5.25;;;;;;;;5047526;28;8912;-83
2023/06/24 00:21:56;;;;;;;;;6.25;6.25;;;;;;;;5050857;28;8916;-83
2023/06/24 00:24:25;;;;;;;;;7.50;7.50;;;;;;;;5045398;28;8865;-83
2023/06/24 00:26:53;;;;;;;;;5.75;5.75;;;;;;;;5050259;28;8885;-84
2023/06/24 00:29:20;;;;;;;;;6.25;6.25;;;;;;;;5066960;28;8850;-83
2023/06/24 00:31:49;;;;;;;;;7.25;7.25;;;;;;;;5052394;28;8827;-84
2023/06/24 00:34:19;;;;;;;;;5.25;5.25;;;;;;;;5064518;28;8862;-83
2023/06/24 00:36:47;;;;;;;;;4.25;4.25;;;;;;;;5061798;28;8889;-83
2023/06/24 00:39:15;;;;;;;;;8.50;8.00;;;;;;;;5053921;28;8845;-84
2023/06/24 00:41:42;;;;;;;;;6.00;6.00;;;;;;;;5050809;28;8893;-83
2023/06/24 00:44:11;;;;;;;;;5.00;5.00;;;;;;;;5049622;28;8996;-83
2023/06/24 00:46:39;;;;;;;;;4.50;4.00;;;;;;;;5064603;28;8958;-83
2023/06/24 00:49:08;;;;;;;;;4.75;4.75;;;;;;;;5054145;28;8967;-82
2023/06/24 00:51:36;;;;;;;;;6.00;6.00;;;;;;;;5055209;28;8862;-83
2023/06/24 00:54:04;;;;;;;;;6.00;5.25;;;;;;;;5055848;28;8892;-83
2023/06/24 00:56:38;;;;;;;;;7.00;7.00;;;;;;;;5054563;28;8846;-84
2023/06/24 00:59:05;;;;;;;;;8.00;6.75;;;;;;;;5051568;28;8901;-83
2023/06/24 01:01:35;;;;;;;;;5.00;5.00;;;;;;;;5061101;28;8834;-82
2023/06/24 01:04:04;;;;;;;;;8.25;8.25;;;;;;;;5053290;28;8881;-83
2023/06/24 01:06:33;;;;;;;;;5.50;5.50;;;;;;;;5047612;28;8841;-85
2023/06/24 01:09:02;;;;;;;;;7.75;7.00;;;;;;;;5061934;28;8851;-85
2023/06/24 01:11:30;;;;;;;;;7.00;7.00;;;;;;;;5053579;28;8841;-85
2023/06/24 01:13:59;;;;;;;;;11.75;7.25;;;;;;;;5050835;28;8865;-86
2023/06/24 01:16:34;;;;;;;;;8.75;6.75;;;;;;;;5057473;28;8858;-84
2023/06/24 01:19:16;;;;;;;;;7.00;7.00;;;;;;;;5052557;28;8880;-82
2023/06/24 01:21:55;;;;;;;;;5.50;5.50;;;;;;;;5052284;28;8870;-85
2023/06/24 01:24:36;;;;;;;;;6.50;6.50;;;;;;;;5051753;28;8841;-85
2023/06/24 01:27:25;;;;;;;;;6.50;6.50;;;;;;;;5053758;28;8964;-84
2023/06/24 01:30:18;;;;;;;;;7.75;6.50;;;;;;;;5048391;28;8874;-84
2023/06/24 01:32:49;;;;;;;;;7.50;7.50;;;;;;;;5022020;28;8814;-85
2023/06/24 01:35:21;;;;;;;;;8.50;7.25;;;;;;;;5052870;28;8979;-84
2023/06/24 01:37:51;;;;;;;;;7.25;6.50;;;;;;;;5051834;28;8869;-84
2023/06/24 01:40:23;;;;;;;;;9.25;8.25;;;;;;;;5044253;28;8987;-83
2023/06/24 01:42:50;;;;;;;;;6.25;6.25;;;;;;;;5050213;28;9012;-82
2023/06/24 01:45:23;;;;;;;;;5.50;5.50;;;;;;;;5056311;28;8888;-83
2023/06/24 01:47:58;;;;;;;;;6.75;6.75;;;;;;;;5049744;28;8871;-85
2023/06/24 01:50:32;;;;;;;;;6.00;6.00;;;;;;;;5051977;28;8849;-84
2023/06/24 01:53:00;;;;;;;;;9.00;8.75;;;;;;;;5054618;28;8857;-84
2023/06/24 01:55:29;;;;;;;;;8.50;7.00;;;;;;;;5058264;28;8885;-83
2023/06/24 01:57:59;;;;;;;;;7.00;7.00;;;;;;;;5047084;28;8917;-82
2023/06/24 02:00:26;;;;;;;;;7.00;7.00;;;;;;;;5057130;28;8914;-83
2023/06/24 02:02:56;;;;;;;;;7.25;5.25;;;;;;;;5059674;28;8905;-84
2023/06/24 02:05:24;;;;;;;;;6.00;6.00;;;;;;;;5060240;28;8874;-84
2023/06/24 02:07:54;;;;;;;;;9.00;6.75;;;;;;;;5036743;28;8914;-84
2023/06/24 02:10:22;;;;;;;;;5.50;4.75;;;;;;;;5056179;28;8877;-85
2023/06/24 02:12:51;;;;;;;;;7.25;7.25;;;;;;;;5055964;28;8987;-84
2023/06/24 02:15:18;;;;;;;;;7.50;7.50;;;;;;;;5054965;28;8958;-85
2023/06/24 02:17:47;;;;;;;;;9.75;6.25;;;;;;;;5046962;28;9675;-85
2023/06/24 02:20:16;;;;;;;;;7.00;7.00;;;;;;;;5058050;28;8870;-84
2023/06/24 02:22:45;;;;;;;;;8.25;8.25;;;;;;;;5045093;28;8876;-84
2023/06/24 02:25:12;;;;;;;;;6.00;6.00;;;;;;;;5049029;28;8995;-84
2023/06/24 02:27:41;;;;;;;;;8.25;8.25;;;;;;;;5052695;28;8916;-85
2023/06/24 02:30:10;;;;;;;;;7.00;7.00;;;;;;;;5048846;28;8844;-84
2023/06/24 02:32:38;;;;;;;;;7.00;6.50;;;;;;;;5056451;28;8864;-83
2023/06/24 02:35:07;;;;;;;;;6.00;6.00;;;;;;;;5055139;28;8880;-84
2023/06/24 02:37:36;;;;;;;;;5.00;5.00;;;;;;;;5054803;28;8869;-85
2023/06/24 02:40:05;;;;;;;;;7.50;7.50;;;;;;;;5054375;28;8849;-85
2023/06/24 02:42:32;;;;;;;;;4.75;4.75;;;;;;;;5058664;28;8841;-85
2023/06/24 02:45:02;;;;;;;;;6.50;6.50;;;;;;;;5061708;28;8843;-84
2023/06/24 02:47:30;;;;;;;;;7.00;7.00;;;;;;;;5053206;28;8967;-85
2023/06/24 02:49:58;;;;;;;;;7.00;7.00;;;;;;;;5045252;28;8851;-84
2023/06/24 02:52:28;;;;;;;;;7.00;7.00;;;;;;;;5062851;28;8869;-85
2023/06/24 02:54:57;;;;;;;;;6.00;6.00;;;;;;;;5060357;28;8857;-85
2023/06/24 02:57:26;;;;;;;;;9.25;8.25;;;;;;;;5064283;28;8899;-85
2023/06/24 02:59:53;;;;;;;;;5.75;5.75;;;;;;;;5054741;28;8950;-85
2023/06/24 03:02:20;;;;;;;;;7.50;7.00;;;;;;;;5053487;28;8948;-84
2023/06/24 03:04:49;;;;;;;;;8.75;6.50;;;;;;;;5053594;28;8943;-84
2023/06/24 03:07:20;;;;;;;;;5.50;5.00;;;;;;;;5060299;28;9005;-86
2023/06/24 03:09:47;;;;;;;;;5.25;5.25;;;;;;;;5065353;28;8881;-85
2023/06/24 03:12:17;;;;;;;;;8.00;6.00;;;;;;;;5058610;28;8895;-85
2023/06/24 03:14:44;;;;;;;;;6.25;4.50;;;;;;;;5059331;28;8884;-84
2023/06/24 03:17:12;;;;;;;;;8.25;8.25;;;;;;;;5054185;28;8841;-86
2023/06/24 03:19:41;;;;;;;;;5.25;5.25;;;;;;;;5058349;28;8873;-86
2023/06/24 03:22:08;;;;;;;;;5.00;5.00;;;;;;;;5060125;28;8865;-85
2023/06/24 03:24:36;;;;;;;;;6.50;6.50;;;;;;;;5060918;28;8899;-86
2023/06/24 03:27:03;;;;;;;;;5.25;5.25;;;;;;;;5053385;28;9000;-86
2023/06/24 03:29:32;;;;;;;;;6.25;6.25;;;;;;;;5053154;28;8939;-86
2023/06/24 03:32:00;;;;;;;;;5.50;5.50;;;;;;;;5053691;28;8786;-86
2023/06/24 03:34:27;;;;;;;;;5.00;5.00;;;;;;;;5069980;28;8957;-86
2023/06/24 03:36:55;;;;;;;;;5.25;5.25;;;;;;;;5061832;28;8897;-85
2023/06/24 03:39:22;;;;;;;;;6.25;5.25;;;;;;;;5055543;28;8857;-85
2023/06/24 03:41:50;;;;;;;;;3.75;3.75;;;;;;;;5056233;28;8853;-84
2023/06/24 03:44:17;;;;;;;;;6.00;4.00;;;;;;;;5053629;28;8838;-85
2023/06/24 03:46:46;;;;;;;;;5.25;5.25;;;;;;;;5055151;28;8841;-84
2023/06/24 03:49:13;;;;;;;;;6.75;6.75;;;;;;;;5064290;28;8937;-84
2023/06/24 03:51:44;;;;;;;;;4.75;4.50;;;;;;;;5061490;28;8874;-84
2023/06/24 03:54:11;;;;;;;;;4.50;4.50;;;;;;;;5064941;28;8908;-84
2023/06/24 03:56:42;;;;;;;;;5.75;4.75;;;;;;;;5066231;28;8856;-85
2023/06/24 03:59:09;;;;;;;;;7.50;6.50;;;;;;;;5057716;28;8861;-83
2023/06/24 04:01:36;;;;;;;;;5.25;5.25;;;;;;;;5066941;28;8783;-84
2023/06/24 04:04:08;;;;;;;;;7.50;6.00;;;;;;;;5062971;28;8881;-84
2023/06/24 04:06:36;;;;;;;;;5.00;5.00;;;;;;;;5051110;28;8990;-84
2023/06/24 04:09:06;;;;;;;;;5.50;5.50;;;;;;;;5050916;28;8874;-84
2023/06/24 04:11:33;;;;;;;;;5.00;5.00;;;;;;;;5050626;28;8850;-85
2023/06/24 04:14:01;;;;;;;;;5.50;5.50;;;;;;;;5051783;28;8973;-84
2023/06/24 04:16:31;;;;;;;;;5.00;5.00;;;;;;;;5052132;28;8899;-85
2023/06/24 04:19:01;;;;;;;;;5.00;4.75;;;;;;;;5052374;28;8849;-85
2023/06/24 04:21:35;;;;;;;;;6.75;5.00;;;;;;;;5062982;28;8849;-84
2023/06/24 04:24:03;;;;;;;;;6.00;6.00;;;;;;;;5059661;28;8831;-84
2023/06/24 04:26:34;;;;;;;;;5.50;5.50;;;;;;;;5053344;28;8861;-83
2023/06/24 04:29:01;;;;;;;;;7.25;5.00;;;;;;;;5054158;28;8999;-84
2023/06/24 04:31:32;;;;;;;;;6.25;6.25;;;;;;;;5055747;28;8913;-84
2023/06/24 04:33:59;;;;;;;;;5.75;4.00;;;;;;;;5044636;28;8853;-84
2023/06/24 04:36:27;;;;;;;;;5.00;5.00;;;;;;;;5052073;28;8857;-84
2023/06/24 04:38:56;;;;;;;;;5.75;5.75;;;;;;;;5052537;28;8872;-85
2023/06/24 04:41:25;;;;;;;;;5.25;5.25;;;;;;;;5049570;28;8854;-85
2023/06/24 04:43:55;;;;;;;;;7.75;7.75;;;;;;;;5049120;28;8865;-84
2023/06/24 04:46:22;;;;;;;;;7.75;6.25;;;;;;;;5052227;28;8857;-84
2023/06/24 04:48:50;;;;;;;;;6.75;6.75;;;;;;;;5050631;28;8842;-85
2023/06/24 04:51:17;;;;;;;;;5.25;5.25;;;;;;;;5051834;28;8977;-85
2023/06/24 04:53:44;;;;;;;;;8.75;8.75;;;;;;;;5049861;28;8981;-84
2023/06/24 04:56:17;;;;;;;;;5.75;5.75;;;;;;;;5049793;28;8849;-85
2023/06/24 04:58:44;;;;;;;;;7.50;6.50;;;;;;;;5042888;28;8877;-82
2023/06/24 05:01:11;;;;;;;;;6.75;6.75;;;;;;;;5054735;28;8909;-86
2023/06/24 05:03:39;;;;;;;;;6.75;6.75;;;;;;;;5051737;28;8892;-85
2023/06/24 05:06:09;;;;;;;;;8.25;8.25;;;;;;;;5047806;28;9019;-81
2023/06/24 05:08:41;;;;;;;;;5.25;5.25;;;;;;;;5069050;28;8936;-87
2023/06/24 05:11:08;;;;;;;;;7.50;7.50;;;;;;;;5056988;28;8857;-82
2023/06/24 05:13:37;;;;;;;;;9.75;9.75;;;;;;;;5045763;28;8970;-87
2023/06/24 05:16:07;;;;;;;;;8.50;8.50;;;;;;;;5052512;28;8862;-87
2023/06/24 05:18:35;;;;;;;;;8.25;8.25;;;;;;;;5053481;28;8872;-90
2023/06/24 05:21:02;;;;;;;;;10.25;9.00;;;;;;;;5054044;28;8932;-89
2023/06/24 05:23:29;;;;;;;;;10.00;9.00;;;;;;;;5063633;28;8865;-90
2023/06/24 05:25:58;;;;;;;;;9.75;8.00;;;;;;;;5062708;28;8981;-87
2023/06/24 05:28:25;;;;;;;;;7.75;7.75;;;;;;;;5053234;28;8865;-88
2023/06/24 05:30:54;;;;;;;;;8.00;8.00;;;;;;;;5060679;28;8827;-88
2023/06/24 05:33:24;;;;;;;;;9.00;9.00;;;;;;;;5049511;28;8942;-87
2023/06/24 05:35:51;;;;;;;;;8.50;6.75;;;;;;;;5050070;28;8870;-86
2023/06/24 05:38:19;;;;;;;;;7.50;7.50;;;;;;;;5055094;28;8975;-85
2023/06/24 05:40:46;;;;;;;;;7.00;7.00;;;;;;;;5053517;28;8903;-85
2023/06/24 05:43:14;;;;;;;;;8.50;8.50;;;;;;;;5051746;28;8888;-83
2023/06/24 05:45:41;;;;;;;;;7.50;6.50;;;;;;;;5049897;28;8845;-85
2023/06/24 05:48:10;;;;;;;;;7.25;7.25;;;;;;;;5049374;28;8855;-86
2023/06/24 05:50:37;;;;;;;;;8.00;8.00;;;;;;;;5048614;28;9001;-81
2023/06/24 05:53:06;;;;;;;;;8.00;8.00;;;;;;;;5048365;28;8861;-84
2023/06/24 05:55:34;;;;;;;;;7.00;6.00;;;;;;;;5057405;28;8855;-85
2023/06/24 05:58:02;;;;;;;;;7.75;7.75;;;;;;;;5048290;28;8877;-85
2023/06/24 06:00:29;;;;;;;;;6.25;6.25;;;;;;;;5049051;28;8742;-86
2023/06/24 06:02:59;;;;;;;;;7.25;7.00;;;;;;;;5051258;28;8930;-86
2023/06/24 06:05:30;;;;;;;;;6.00;6.00;;;;;;;;5037860;28;8969;-85
2023/06/24 06:07:57;;;;;;;;;8.25;8.25;;;;;;;;5050003;28;8847;-84
2023/06/24 06:10:27;;;;;;;;;9.00;9.00;;;;;;;;5049718;28;8980;-91
2023/06/24 06:12:55;;;;;;;;;8.75;8.75;;;;;;;;5065464;28;8893;-88
2023/06/24 06:15:24;;;;;;;;;10.75;8.75;;;;;;;;5062145;28;8858;-88
2023/06/24 06:17:56;;;;;;;;;8.25;8.25;;;;;;;;5056435;28;8924;-81
2023/06/24 06:20:23;;;;;;;;;7.00;7.00;;;;;;;;5064234;28;8934;-83
2023/06/24 06:23:03;;;;;;;;;8.75;8.75;;;;;;;;5053755;28;8884;-80
2023/06/24 06:25:30;;;;;;;;;8.75;8.75;;;;;;;;5048024;28;8980;-82
2023/06/24 06:27:58;;;;;;;;;9.50;8.75;;;;;;;;5049103;28;8889;-80
2023/06/24 06:30:26;;;;;;;;;8.50;7.75;;;;;;;;5041015;28;8796;-80
2023/06/24 06:32:53;;;;;;;;;8.25;8.25;;;;;;;;5066104;28;8855;-80
2023/06/24 06:35:21;;;;;;;;;7.25;7.25;;;;;;;;5052119;28;8974;-80
2023/06/24 06:37:52;;;;;;;;;8.75;7.75;;;;;;;;5047251;28;8881;-79
2023/06/24 06:40:21;;;;;;;;;6.50;6.50;;;;;;;;5047655;28;8878;-80
2023/06/24 06:42:49;;;;;;;;;9.50;9.25;;;;;;;;5047702;28;8992;-80
2023/06/24 06:45:18;;;;;;;;;8.50;8.25;;;;;;;;5048119;28;8861;-84
2023/06/24 06:47:46;;;;;;;;;7.40;7.40;;;;;;;;5047990;28;8857;-82
2023/06/24 06:50:13;;;;;;;;;9.00;9.00;;;;;;;;5048948;28;8849;-82
2023/06/24 06:52:43;;;;;;;;;9.00;7.00;;;;;;;;5048832;28;8853;-82
2023/06/24 06:55:11;;;;;;;;;8.20;7.20;;;;;;;;5050292;28;8853;-82
2023/06/24 06:57:40;;;;;;;;;8.40;8.40;;;;;;;;5058637;28;8917;-84
2023/06/24 07:00:08;;;;;;;;;9.00;7.20;;;;;;;;5051760;28;8861;-84
2023/06/24 07:02:35;;;;;;;;;9.00;7.60;;;;;;;;5044806;28;9545;-83
2023/06/24 07:05:03;;;;;;;;;6.40;5.40;;;;;;;;5047559;28;8850;-83
2023/06/24 07:07:30;;;;;;;;;6.00;6.00;;;;;;;;5048547;28;8904;-87
2023/06/24 07:09:59;;;;;;;;;4.80;4.80;;;;;;;;5046206;28;8895;-84
2023/06/24 07:12:29;;;;;;;;;6.40;6.00;;;;;;;;5032349;28;8856;-88
2023/06/24 07:14:58;;;;;;;;;3.00;3.00;;;;;;;;5046776;28;8843;-87
2023/06/24 07:17:30;;;;;;;;;2.00;2.00;;;;;;;;5044476;28;9652;-83
2023/06/24 07:19:57;;;;;;;;;4.80;4.80;;;;;;;;5055677;28;8930;-82
2023/06/24 07:22:24;;;;;;;;;5.00;5.00;;;;;;;;5056995;28;8958;-82
2023/06/24 07:24:56;;;;;;;;;6.00;5.00;;;;;;;;5054020;28;8877;-83
2023/06/24 07:27:23;;;;;;;;;4.80;4.80;;;;;;;;5050622;28;8955;-82
2023/06/24 07:29:50;;;;;;;;;4.20;3.80;;;;;;;;5052040;28;8972;-82
2023/06/24 07:32:19;;;;;;;;;6.00;4.20;;;;;;;;5052250;28;9160;-83
2023/06/24 07:34:46;;;;;;;;;3.80;3.80;;;;;;;;5056610;28;9748;-82
2023/06/24 07:37:14;;;;;;;;;5.00;3.80;;;;;;;;5057596;28;8873;-82
2023/06/24 07:39:41;;;;;;;;;1.00;1.00;;;;;;;;5052123;28;9003;-82
2023/06/24 07:42:09;;;;;;;;;3.00;3.00;;;;;;;;5050800;28;8853;-82
2023/06/24 07:44:39;;;;;;;;;4.00;4.00;;;;;;;;5050766;28;9664;-83
2023/06/24 07:47:09;;;;;;;;;2.80;2.80;;;;;;;;5053672;28;8867;-82
2023/06/24 07:49:37;;;;;;;;;5.00;5.00;;;;;;;;5052104;28;8942;-82
2023/06/24 07:52:06;;;;;;;;;2.80;2.80;;;;;;;;5055296;28;8850;-83
2023/06/24 07:54:33;;;;;;;;;4.00;4.00;;;;;;;;5061712;28;8860;-83
2023/06/24 07:57:03;;;;;;;;;4.60;2.80;;;;;;;;5052809;28;8854;-82
2023/06/24 07:59:33;;;;;;;;;3.80;3.80;;;;;;;;5051312;28;8836;-83
2023/06/24 08:02:01;;;;;;;;;3.20;3.20;;;;;;;;5050573;28;8817;-82
2023/06/24 08:04:31;;;;;;;;;2.40;2.40;;;;;;;;5050855;28;8849;-82
2023/06/24 08:07:01;;;;;;;;;2.40;2.40;;;;;;;;5059781;28;9001;-82
2023/06/24 08:09:28;;;;;;;;;1.80;1.80;;;;;;;;5053255;28;9715;-82
2023/06/24 08:11:56;;;;;;;;;1.40;1.40;;;;;;;;5051144;28;8868;-83
2023/06/24 08:14:25;;;;;;;;;1.20;1.20;;;;;;;;5049904;28;8832;-82
2023/06/24 08:16:53;;;;;;;;;2.20;2.20;;;;;;;;5050292;28;8890;-83
2023/06/24 08:19:20;;;;;;;;;1.40;1.40;;;;;;;;5050570;28;9033;-82
2023/06/24 08:21:49;;;;;;;;;2.00;2.00;;;;;;;;5051509;28;8869;-83
2023/06/24 08:24:17;;;;;;;;;1.60;1.00;;;;;;;;5052317;28;8877;-83
2023/06/24 08:26:45;;;;;;;;;2.00;2.00;;;;;;;;5053637;28;8877;-82
2023/06/24 08:29:12;;;;;;;;;3.40;2.20;;;;;;;;5055005;28;8927;-82
2023/06/24 08:31:39;;;;;;;;;1.40;1.40;;;;;;;;5054810;28;8837;-83
2023/06/24 08:34:07;;;;;;;;;1.60;1.60;;;;;;;;5055386;28;8950;-83
2023/06/24 08:36:36;;;;;;;;;1.00;1.00;;;;;;;;5062137;28;8890;-83
2023/06/24 08:39:03;;;;;;;;;1.20;1.20;;;;;;;;5062314;28;8873;-82
2023/06/24 08:41:32;;;;;;;;;2.00;2.00;;;;;;;;5063462;28;8858;-83
2023/06/24 08:44:00;;;;;;;;;3.20;2.00;;;;;;;;5055793;28;8861;-83
2023/06/24 08:46:30;;;;;;;;;1.00;1.00;;;;;;;;5049511;28;9626;-83
2023/06/24 08:49:03;;;;;;;;;1.00;1.00;;;;;;;;5057364;28;8869;-81
2023/06/24 08:51:32;;;;;;;;;1.80;1.80;;;;;;;;5061967;28;8989;-82
2023/06/24 08:54:02;;;;;;;;;1.20;1.20;;;;;;;;5059545;28;8976;-83
2023/06/24 08:56:33;;;;;;;;;1.40;1.40;;;;;;;;5068703;28;8863;-83
2023/06/24 08:59:00;;;;;;;;;1.20;1.20;;;;;;;;5059156;28;8856;-84
2023/06/24 09:01:29;;;;;;;;;1.40;1.40;;;;;;;;5056047;28;8802;-83
2023/06/24 09:03:56;;;;;;;;;1.20;0.80;;;;;;;;5066332;28;8854;-84
2023/06/24 09:06:24;;;;;;;;;1.00;1.00;;;;;;;;5057955;28;8920;-84
2023/06/24 09:08:55;;;;;;;;;1.00;1.00;;;;;;;;5056560;28;8916;-84
2023/06/24 09:11:26;;;;;;;;;0.20;0.20;;;;;;;;5050618;28;9160;-85
2023/06/24 09:13:58;;;;;;;;;1.00;1.00;;;;;;;;5049903;28;8857;-84
2023/06/24 09:16:27;;;;;;;;;1.00;1.00;;;;;;;;5049101;28;8861;-84
2023/06/24 09:18:55;;;;;;;;;0.20;0.20;;;;;;;;5049707;28;9631;-83
2023/06/24 09:21:30;;;;;;;;;0.00;0.00;;;;;;;;5051043;28;9422;-83
2023/06/24 09:23:58;;;;;;;;;0.00;0.00;;;;;;;;5050535;28;8877;-83
2023/06/24 09:26:30;;;;;;;;;1.00;1.00;;;;;;;;5069808;28;8865;-83
2023/06/24 09:28:59;;;;;;;;;0.00;0.00;;;;;;;;5055951;28;8862;-83
2023/06/24 09:31:28;;;;;;;;;1.00;1.00;;;;;;;;5051353;28;8907;-83
2023/06/24 09:33:59;;;;;;;;;0.60;0.60;;;;;;;;5052160;28;8868;-84
2023/06/24 09:36:31;;;;;;;;;3.60;1.00;;;;;;;;5049962;28;8872;-83
2023/06/24 09:39:06;;;;;;;;;0.20;0.20;;;;;;;;5051862;28;8869;-83
2023/06/24 09:41:34;;;;;;;;;0.00;0.00;;;;;;;;5049666;28;8950;-82
2023/06/24 09:44:03;;;;;;;;;0.40;0.40;;;;;;;;5050635;28;8857;-83
2023/06/24 09:46:31;;;;;;;;;1.00;1.00;;;;;;;;5051010;28;8869;-82
2023/06/24 09:48:58;;;;;;;;;0.00;0.00;;;;;;;;5050126;28;8857;-83
2023/06/24 09:51:26;;;;;;;;;0.40;0.40;;;;;;;;5062849;28;8870;-83
2023/06/24 09:53:57;;;;;;;;;1.00;1.00;;;;;;;;5050187;28;8873;-83
2023/06/24 09:56:24;;;;;;;;;1.80;1.80;;;;;;;;5052162;28;8869;-82
2023/06/24 09:58:52;;;;;;;;;0.00;0.00;;;;;;;;5058255;28;8867;-82
2023/06/24 10:01:21;;;;;;;;;0.40;0.40;;;;;;;;5067416;28;8800;-81
2023/06/24 10:03:48;;;;;;;;;1.00;1.00;;;;;;;;5051916;28;8873;-81
2023/06/24 10:06:16;;;;;;;;;1.00;1.00;;;;;;;;5052040;28;8873;-83
2023/06/24 10:08:45;;;;;;;;;1.80;1.80;;;;;;;;5058675;28;8916;-82
2023/06/24 10:11:13;;;;;;;;;2.60;1.00;;;;;;;;5066687;28;8901;-83
2023/06/24 10:13:40;;;;;;;;;1.40;1.40;;;;;;;;5060882;28;8857;-83
2023/06/24 10:16:07;;;;;;;;;1.00;1.00;;;;;;;;5061777;28;9610;-82
2023/06/24 10:18:38;;;;;;;;;2.20;2.20;;;;;;;;5058105;28;9609;-83
2023/06/24 10:21:09;;;;;;;;;1.40;1.40;;;;;;;;5049906;28;8878;-83
2023/06/24 10:23:44;;;;;;;;;1.00;1.00;;;;;;;;5056518;28;8858;-83
2023/06/24 10:26:23;;;;;;;;;0.00;0.00;;;;;;;;5062917;28;8843;-83
2023/06/24 10:29:14;;;;;;;;;1.20;1.20;;;;;;;;5064630;28;8847;-83
2023/06/24 10:31:54;;;;;;;;;2.20;2.20;;;;;;;;5047873;28;8806;-83
2023/06/24 10:34:29;;;;;;;;;0.40;0.40;;;;;;;;5064826;28;8834;-83
2023/06/24 10:36:58;;;;;;;;;2.00;2.00;;;;;;;;5065436;28;9637;-83
2023/06/24 10:39:55;;;;;;;;;2.00;2.00;;;;;;;;5067396;28;8959;-82
2023/06/24 10:42:48;;;;;;;;;1.40;1.40;;;;;;;;5057493;28;8886;-81
2023/06/24 10:45:18;;;;;;;;;1.80;1.80;;;;;;;;5038413;28;8854;-82
2023/06/24 10:47:46;;;;;;;;;2.00;2.00;;;;;;;;5053779;28;8998;-82
2023/06/24 10:50:15;;;;;;;;;3.20;3.20;;;;;;;;5048471;28;8866;-82
2023/06/24 10:52:44;;;;;;;;;5.00;1.60;;;;;;;;5047971;28;8886;-83
2023/06/24 10:55:11;;;;;;;;;2.00;2.00;;;;;;;;5052469;28;8988;-83
2023/06/24 10:57:39;;;;;;;;;4.00;4.00;;;;;;;;5052199;28;9000;-83
2023/06/24 11:00:07;;;;;;;;;2.20;2.20;;;;;;;;5052537;28;8888;-81
2023/06/24 11:02:36;;;;;;;;;3.80;3.80;;;;;;;;5052807;28;8861;-82
2023/06/24 11:05:05;;;;;;;;;3.00;3.00;;;;;;;;5060195;28;8868;-82
2023/06/24 11:07:35;;;;;;;;;4.40;4.40;;;;;;;;5061279;28;8962;-82
2023/06/24 11:10:07;;;;;;;;;1.00;1.00;;;;;;;;5058022;28;8894;-83
2023/06/24 11:12:36;;;;;;;;;3.00;3.00;;;;;;;;5057187;28;8861;-82
2023/06/24 11:15:09;;;;;;;;;4.00;4.00;;;;;;;;5051984;28;8857;-82
2023/06/24 11:17:37;;;;;;;;;3.20;3.20;;;;;;;;5051654;28;8863;-81
2023/06/24 11:20:09;;;;;;;;;3.40;3.40;;;;;;;;5053618;28;8877;-82
2023/06/24 11:22:37;;;;;;;;;2.80;2.80;;;;;;;;5065435;28;8866;-82
2023/06/24 11:25:05;;;;;;;;;6.40;6.40;;;;;;;;5052577;28;8884;-82
2023/06/24 11:27:33;;;;;;;;;6.80;6.80;;;;;;;;5057335;28;8878;-82
2023/06/24 11:30:04;;;;;;;;;9.40;9.20;;;;;;;;5064763;28;8854;-81
2023/06/24 11:32:37;;;;;;;;;4.60;4.60;;;;;;;;5060382;28;8815;-83
2023/06/24 11:35:09;;;;;;;;;4.00;4.00;;;;;;;;5059096;28;8850;-81
2023/06/24 11:37:43;;;;;;;;;3.20;3.20;;;;;;;;5052426;28;8833;-82
2023/06/24 11:40:12;;;;;;;;;2.60;2.60;;;;;;;;5052997;28;8968;-82
2023/06/24 11:42:41;;;;;;;;;42.40;32.80;;;;;;;;5054402;28;8979;-82
2023/06/24 11:45:10;;;;;;;;;6.60;5.00;;;;;;;;5054252;28;8887;-82
2023/06/24 11:47:40;;;;;;;;;3.00;3.00;;;;;;;;5052830;28;8857;-82
2023/06/24 11:50:09;;;;;;;;;3.40;3.00;;;;;;;;5053964;28;8931;-82
2023/06/24 11:52:43;;;;;;;;;4.40;3.20;;;;;;;;5070637;28;8867;-83
2023/06/24 11:55:17;;;;;;;;;3.00;3.00;;;;;;;;5061645;28;8885;-83
2023/06/24 11:57:56;;;;;;;;;2.20;2.20;;;;;;;;5051613;28;8857;-81
2023/06/24 12:00:27;;;;;;;;;4.40;4.40;;;;;;;;5054934;28;9001;-82
2023/06/24 12:02:56;;;;;;;;;5.00;5.00;;;;;;;;5052720;28;8857;-83
2023/06/24 12:05:29;;;;;;;;;3.00;3.00;;;;;;;;5058953;28;8912;-82
2023/06/24 12:08:01;;;;;;;;;2.00;2.00;;;;;;;;5047556;28;8858;-82
2023/06/24 12:10:29;;;;;;;;;2.20;2.20;;;;;;;;5049985;28;8858;-82
2023/06/24 12:12:58;;;;;;;;;3.40;3.40;;;;;;;;5053683;28;9522;-82
2023/06/24 12:15:27;;;;;;;;;4.80;4.80;;;;;;;;5069692;28;8859;-82
2023/06/24 12:17:57;;;;;;;;;2.20;2.20;;;;;;;;5052053;28;8877;-82
2023/06/24 12:20:26;;;;;;;;;2.80;2.80;;;;;;;;5051383;28;8979;-82
2023/06/24 12:22:53;;;;;;;;;2.80;2.80;;;;;;;;5051009;28;8889;-82
2023/06/24 12:25:22;;;;;;;;;5.00;5.00;;;;;;;;5051088;28;8896;-82
2023/06/24 12:27:49;;;;;;;;;5.00;5.00;;;;;;;;5062461;28;8906;-82
2023/06/24 12:30:20;;;;;;;;;4.00;4.00;;;;;;;;5049022;28;8863;-82
2023/06/24 12:32:51;;;;;;;;;4.00;4.00;;;;;;;;5039117;28;9247;-82
2023/06/24 12:35:18;;;;;;;;;4.00;4.00;;;;;;;;5051262;28;9000;-82
2023/06/24 12:37:45;;;;;;;;;3.40;3.40;;;;;;;;5040945;28;8866;-82
2023/06/24 12:40:16;;;;;;;;;3.40;2.40;;;;;;;;5057657;28;8930;-82
2023/06/24 12:42:45;;;;;;;;;2.00;2.00;;;;;;;;5054775;28;8871;-82
2023/06/24 12:45:13;;;;;;;;;5.00;5.00;;;;;;;;5052008;28;8916;-82
2023/06/24 12:47:40;;;;;;;;;2.40;2.40;;;;;;;;5051498;28;8865;-83
2023/06/24 12:50:11;;;;;;;;;4.80;4.80;;;;;;;;5054375;28;8861;-82
2023/06/24 12:52:38;;;;;;;;;3.20;3.20;;;;;;;;5068864;28;8969;-83
2023/06/24 12:55:10;;;;;;;;;2.80;2.80;;;;;;;;5052886;28;8919;-83
2023/06/24 12:57:39;;;;;;;;;3.60;3.60;;;;;;;;5060628;28;8866;-83
2023/06/24 13:00:09;;;;;;;;;2.00;2.00;;;;;;;;5052888;28;8845;-83
2023/06/24 13:02:38;;;;;;;;;2.00;2.00;;;;;;;;5050473;28;9725;-82
2023/06/24 13:05:06;;;;;;;;;3.20;3.20;;;;;;;;5062869;28;8861;-82
2023/06/24 13:07:34;;;;;;;;;2.00;2.00;;;;;;;;5050467;28;9153;-82
2023/06/24 13:10:01;;;;;;;;;2.20;2.20;;;;;;;;5050043;28;9689;-82
2023/06/24 13:12:29;;;;;;;;;2.40;2.40;;;;;;;;5049555;28;8857;-83
2023/06/24 13:15:00;;;;;;;;;4.60;3.60;;;;;;;;5050255;28;8936;-81
2023/06/24 13:17:30;;;;;;;;;5.20;4.00;;;;;;;;5063406;28;8866;-81
2023/06/24 13:19:59;;;;;;;;;3.40;3.40;;;;;;;;5059500;28;8889;-81
2023/06/24 13:22:26;;;;;;;;;2.80;2.80;;;;;;;;5056895;28;8859;-82
2023/06/24 13:24:53;;;;;;;;;2.00;2.00;;;;;;;;5051055;28;8881;-81
2023/06/24 13:27:21;;;;;;;;;3.20;3.00;;;;;;;;5053004;28;8857;-82
2023/06/24 13:29:48;;;;;;;;;2.40;2.40;;;;;;;;5060584;28;8875;-83
2023/06/24 13:32:17;;;;;;;;;3.60;3.60;;;;;;;;5063140;28;8803;-82
2023/06/24 13:34:48;;;;;;;;;1.60;1.60;;;;;;;;5048445;28;8972;-82
2023/06/24 13:37:15;;;;;;;;;3.40;3.40;;;;;;;;5048479;28;8881;-82
2023/06/24 13:39:43;;;;;;;;;1.00;1.00;;;;;;;;5038428;28;8907;-83
2023/06/24 13:42:10;;;;;;;;;2.80;2.80;;;;;;;;5058536;28;8869;-82
2023/06/24 13:44:40;;;;;;;;;4.20;2.40;;;;;;;;5058035;28;8837;-83
2023/06/24 13:47:08;;;;;;;;;2.80;2.80;;;;;;;;5059662;28;8872;-83
2023/06/24 13:49:35;;;;;;;;;2.00;2.00;;;;;;;;5065516;28;8956;-83
2023/06/24 13:52:04;;;;;;;;;2.20;2.20;;;;;;;;5049920;28;8904;-82
2023/06/24 13:54:34;;;;;;;;;3.00;3.00;;;;;;;;5056966;28;8847;-82
2023/06/24 13:57:02;;;;;;;;;3.00;3.00;;;;;;;;5063836;28;8874;-82
2023/06/24 13:59:29;;;;;;;;;2.00;2.00;;;;;;;;5055239;28;8865;-82
2023/06/24 14:01:59;;;;;;;;;4.00;4.00;;;;;;;;5048296;28;8799;-82
2023/06/24 14:04:26;;;;;;;;;0.60;0.60;;;;;;;;5048704;28;8971;-81
2023/06/24 14:06:54;;;;;;;;;2.60;1.00;;;;;;;;5051467;28;8873;-82
2023/06/24 14:09:23;;;;;;;;;1.40;1.40;;;;;;;;5053950;28;8860;-83
2023/06/24 14:11:51;;;;;;;;;1.20;1.20;;;;;;;;5055475;28;8851;-82
2023/06/24 14:14:18;;;;;;;;;1.00;1.00;;;;;;;;5052644;28;8877;-82
2023/06/24 14:16:46;;;;;;;;;2.20;2.20;;;;;;;;5050699;28;8862;-81
2023/06/24 14:19:13;;;;;;;;;2.00;2.00;;;;;;;;5052272;28;8859;-82
2023/06/24 14:21:43;;;;;;;;;1.00;1.00;;;;;;;;5050692;28;8963;-83
2023/06/24 14:24:11;;;;;;;;;1.00;1.00;;;;;;;;5051140;28;8839;-82
2023/06/24 14:26:41;;;;;;;;;1.80;1.80;;;;;;;;5058613;28;8873;-82
2023/06/24 14:29:08;;;;;;;;;1.60;1.00;;;;;;;;5062832;28;8877;-81
2023/06/24 14:31:36;;;;;;;;;1.20;1.20;;;;;;;;5048226;28;8948;-82
2023/06/24 14:34:03;;;;;;;;;2.00;2.00;;;;;;;;5061893;28;8880;-82
2023/06/24 14:36:30;;;;;;;;;1.80;1.80;;;;;;;;5059290;28;8928;-82
2023/06/24 14:39:02;;;;;;;;;1.00;1.00;;;;;;;;5051277;28;8962;-82
2023/06/24 14:41:32;;;;;;;;;0.20;0.20;;;;;;;;5049659;28;8877;-81
2023/06/24 14:44:01;;;;;;;;;1.00;1.00;;;;;;;;5048099;28;9000;-81
2023/06/24 14:46:34;;;;;;;;;2.40;2.40;;;;;;;;5049111;28;8877;-81
2023/06/24 14:49:02;;;;;;;;;2.00;2.00;;;;;;;;5047863;28;8884;-81
2023/06/24 14:51:29;;;;;;;;;2.00;2.00;;;;;;;;5050413;28;9000;-81
2023/06/24 14:53:57;;;;;;;;;2.60;2.60;;;;;;;;5051056;28;8858;-82
2023/06/24 14:56:24;;;;;;;;;2.20;1.00;;;;;;;;5062779;28;8870;-81
2023/06/24 14:58:52;;;;;;;;;3.00;2.40;;;;;;;;5058103;28;8843;-81
2023/06/24 15:01:20;;;;;;;;;1.00;1.00;;;;;;;;5056017;28;8930;-81
2023/06/24 15:03:48;;;;;;;;;1.80;1.80;;;;;;;;5058447;28;8869;-82
2023/06/24 15:06:15;;;;;;;;;0.20;0.20;;;;;;;;5060053;28;8977;-82
2023/06/24 15:08:42;;;;;;;;;1.40;1.40;;;;;;;;5058648;28;8857;-82